Aérodrome :
LOGIN :

S'inscrire | Disclaimer

   EN    FR    IT 

 










Légende :    VFR   VFR Marginal   IFR   IFR Intensif   IFR Très Intensif
Visi : 
Plafond : 
>= 8 km
>= 3000ft
5 à 8 km
1000 à 3000 ft
1500m à 5 km
500 à 1000 ft
800 à 1500m
200 à 500 ft
< 800m
< 200 ft
Symboles :   Orages  Brouillard  Fortes neiges  Fortes précipitations  Vent > 20 kt
SIGMETs :   Divers  Orages  Givrage  Turbulence  Onde Orograph.  Cendres Volcan.






- Altitude de l'aérodrome : 1906 ft
- Code IATA : INN


LOWI - Innsbruck

DERNIER METAR :
  • 241120Z 07003KT 040V140 9999 FEW007 SCT015 BKN030 06/04 Q1023 NOSIG

METARs EXPIRÉS :
  • 241050Z 08006KT 040V110 9999 FEW007 SCT015 BKN030 06/03 Q1024 NOSIG
  • 241020Z 07007KT 040V110 9999 FEW007 SCT010 BKN030 06/03 Q1024 NOSIG
  • 240950Z 08005KT 050V110 9999 -RA FEW007 BKN017 05/03 Q1025 NOSIG
  • 240920Z 08004KT 050V130 9999 -RA FEW007 SCT014 BKN020 05/03 Q1025 NOSIG
  • 240850Z 07007KT 9999 -RA FEW007 BKN014 BKN060 05/03 Q1025 TEMPO FEW007 SCT014 BKN060

TAF TAF LOWI
Valide du 24 à 12h jusqu'au 25 à 12h UTC


241115Z 2412/2512 08004KT 9999 SCT020 BKN060 TX10/2415Z TN04/2506Z
BECMG 2412/2414 FEW040
TEMPO 2412/2416 09009KT
BECMG 2416/2418 27005KT CAVOK
TEMPO 2506/2512 27010KT



MET'MAP, la Météo Aéronautique d'un coup d'oeil ! - Copyright ORBIFLY Décembre 2007 - Disclaimer

ORBIFLY MET'MAP TEAM :

Programmation & Développement : Alexandra Zaïnal
Sur une idée originale de : Baudouin d'Aumeries
Assistance à la programmation : Marc-Olivier Méhu
Soutien technique & logistique : Manuel Goepfert

Contact : metmap@orbifly.com




SOURCES & CREDITS :

   NOAA